Time;durP1;ratioP1;P1;durP2;ratioP2;P2;SDS_P1;SDS_P2;PMS_P1;PMS_P2;Temp;Humidity;BMP_temperature;BMP_pressure;BME280_temperature;BME280_humidity;BME280_pressure;Samples;Min_cycle;Max_cycle;Signal;HPM_P1;HPM_P2
2021/08/06 00:00:56;;;;;;;2.67;2.47;;;20.10;99.90;;;;;;6153875;23;20458;-85
2021/08/06 00:07:25;;;;;;;3.33;3.10;;;20.10;99.90;;;;;;6090630;23;20449;-84
2021/08/06 00:10:19;;;;;;;3.23;3.00;;;19.90;99.90;;;;;;6003600;24;20392;-85
2021/08/06 00:16:39;;;;;;;3.00;2.80;;;19.90;99.90;;;;;;6113491;23;20916;-87
2021/08/06 00:19:21;;;;;;;2.77;2.57;;;19.90;99.90;;;;;;6091844;23;20416;-85
2021/08/06 00:25:09;;;;;;;3.30;2.80;;;19.80;99.90;;;;;;5966880;24;20421;-84
2021/08/06 00:27:57;;;;;;;2.90;2.70;;;20.00;99.90;;;;;;5962348;24;20405;-86
2021/08/06 00:30:57;;;;;;;2.93;2.60;;;19.90;99.90;;;;;;5940721;24;20448;-87
2021/08/06 00:33:39;;;;;;;3.33;2.80;;;19.80;99.90;;;;;;5961926;24;20413;-86
2021/08/06 00:36:09;;;;;;;2.80;2.47;;;19.80;99.90;;;;;;5961186;24;21214;-85
2021/08/06 00:38:39;;;;;;;3.60;3.20;;;19.80;99.90;;;;;;5973257;24;20481;-86
2021/08/06 00:41:24;;;;;;;3.03;2.70;;;19.90;99.90;;;;;;5950404;24;20462;-85
2021/08/06 00:43:53;;;;;;;4.20;3.10;;;19.80;99.90;;;;;;5974955;24;20421;-86
2021/08/06 00:46:41;;;;;;;;;;;;;;;;;;;;;
2021/08/06 00:52:45;;;;;;;3.03;2.83;;;19.70;99.90;;;;;;6113203;23;20529;-86
2021/08/06 00:58:58;;;;;;;2.90;2.70;;;19.80;99.90;;;;;;6063688;23;20370;-86
2021/08/06 01:01:29;;;;;;;3.93;2.50;;;19.70;99.90;;;;;;6059149;23;20498;-84
2021/08/06 01:04:18;;;;;;;2.97;2.77;;;19.70;99.90;;;;;;6057937;23;20455;-87
2021/08/06 01:07:10;;;;;;;3.10;2.87;;;19.70;99.90;;;;;;6092451;23;20424;-87
2021/08/06 01:09:56;;;;;;;2.30;2.17;;;19.60;99.90;;;;;;6105263;23;20433;-87
2021/08/06 01:12:27;;;;;;;2.80;2.60;;;19.60;99.90;;;;;;6103937;23;20531;-87
2021/08/06 01:15:00;;;;;;;2.73;2.37;;;19.60;99.90;;;;;;6102081;23;20432;-85
2021/08/06 01:17:31;;;;;;;3.30;3.00;;;19.60;99.90;;;;;;6103325;23;20476;-86
2021/08/06 01:20:04;;;;;;;3.70;3.13;;;19.60;99.90;;;;;;6104729;23;20899;-85
2021/08/06 01:22:44;;;;;;;3.20;2.90;;;19.60;99.90;;;;;;6106963;23;20475;-85
2021/08/06 01:25:14;;;;;;;2.90;2.70;;;19.60;99.90;;;;;;6106953;23;20396;-85
2021/08/06 01:27:46;;;;;;;4.03;2.70;;;19.50;99.90;;;;;;6111219;23;20420;-86
2021/08/06 01:32:56;;;;;;;4.93;2.60;;;19.70;99.90;;;;;;6131836;23;20457;-85
2021/08/06 01:36:10;;;;;;;2.60;2.40;;;19.60;99.90;;;;;;6130776;23;20404;-84
2021/08/06 01:38:57;;;;;;;3.07;2.87;;;19.40;99.90;;;;;;6119555;23;20427;-83
2021/08/06 01:46:06;;;;;;;4.40;2.73;;;19.40;99.90;;;;;;6070891;23;20426;-84
2021/08/06 01:49:10;;;;;;;;;;;;;;;;;;;;;
2021/08/06 01:52:10;;;;;;;3.43;3.10;;;19.30;99.90;;;;;;6072811;23;20861;-84
2021/08/06 01:57:39;;;;;;;2.57;2.37;;;19.20;99.90;;;;;;6134521;23;20404;-86
2021/08/06 02:00:18;;;;;;;4.00;2.47;;;19.40;99.90;;;;;;6107749;23;20416;-86
2021/08/06 02:02:45;;;;;;;2.30;2.10;;;19.50;99.90;;;;;;6134276;23;20414;-82
2021/08/06 02:05:14;;;;;;;2.80;2.60;;;19.60;99.90;;;;;;6109187;23;20384;-83
2021/08/06 02:07:41;;;;;;;3.00;2.80;;;19.60;99.90;;;;;;6134662;23;20435;-85
2021/08/06 02:10:10;;;;;;;5.00;3.10;;;19.50;99.90;;;;;;6108585;23;20415;-84
2021/08/06 02:12:38;;;;;;;3.70;2.63;;;19.50;99.90;;;;;;6105217;23;20444;-85
2021/08/06 02:15:07;;;;;;;3.13;2.80;;;19.50;99.90;;;;;;6106998;23;20408;-81
2021/08/06 02:17:36;;;;;;;4.47;2.77;;;19.60;99.90;;;;;;6108063;23;20922;-84
2021/08/06 02:20:06;;;;;;;3.60;2.87;;;19.50;99.90;;;;;;6107879;23;20907;-87
2021/08/06 02:22:34;;;;;;;2.57;2.37;;;19.50;99.90;;;;;;6117692;23;20420;-84
2021/08/06 02:25:04;;;;;;;2.30;2.20;;;19.70;99.90;;;;;;6108622;23;20411;-83
2021/08/06 02:27:34;;;;;;;3.00;2.63;;;19.70;99.90;;;;;;6108309;23;20415;-83
2021/08/06 02:30:02;;;;;;;3.50;2.90;;;19.70;99.90;;;;;;6109620;23;20433;-83
2021/08/06 02:32:29;;;;;;;3.03;2.83;;;19.70;99.90;;;;;;6133382;23;20463;-85
2021/08/06 02:35:00;;;;;;;3.60;2.97;;;19.50;99.90;;;;;;6111746;23;20423;-83
2021/08/06 02:37:27;;;;;;;6.23;2.80;;;19.60;99.90;;;;;;6137519;23;20416;-85
2021/08/06 02:39:54;;;;;;;4.20;2.67;;;19.50;99.90;;;;;;6119705;23;20412;-87
2021/08/06 02:42:22;;;;;;;4.30;2.70;;;19.50;99.90;;;;;;6122316;23;20460;-87
2021/08/06 02:45:34;;;;;;;3.40;2.80;;;19.50;99.90;;;;;;6117490;23;21178;-85
2021/08/06 02:48:33;;;;;;;2.67;2.47;;;19.30;99.90;;;;;;6103377;23;20529;-84
2021/08/06 02:51:30;;;;;;;3.30;3.00;;;19.40;99.90;;;;;;6110418;23;20812;-83
2021/08/06 02:54:10;;;;;;;2.70;2.50;;;19.30;99.90;;;;;;6107695;23;20407;-83
2021/08/06 02:57:06;;;;;;;4.17;2.60;;;19.40;99.90;;;;;;6105545;23;20491;-83
2021/08/06 02:59:56;;;;;;;3.07;2.83;;;19.30;99.90;;;;;;6088531;23;20460;-82
2021/08/06 03:02:37;;;;;;;2.57;2.30;;;19.20;99.90;;;;;;6046721;23;20407;-84
2021/08/06 03:05:39;;;;;;;2.80;2.60;;;19.40;99.90;;;;;;6050710;23;20411;-82
2021/08/06 03:08:30;;;;;;;3.93;3.00;;;19.70;99.90;;;;;;6042050;23;20475;-83
2021/08/06 03:12:07;;;;;;;4.70;2.83;;;19.70;99.90;;;;;;6047854;23;20426;-85
2021/08/06 03:15:11;;;;;;;3.53;2.97;;;19.60;99.90;;;;;;6050248;23;20931;-83
2021/08/06 03:18:19;;;;;;;3.10;2.90;;;19.50;99.90;;;;;;6051271;23;21026;-82
2021/08/06 03:21:16;;;;;;;3.03;2.73;;;19.40;99.90;;;;;;6054039;23;20442;-84
2021/08/06 03:24:14;;;;;;;3.63;3.33;;;19.30;99.90;;;;;;6049882;23;20923;-82
2021/08/06 03:33:58;;;;;;;4.03;2.73;;;19.00;99.90;;;;;;6182527;23;20453;-85
2021/08/06 03:36:31;;;;;;;4.30;3.27;;;19.00;99.90;;;;;;6158044;23;20430;-84
2021/08/06 03:50:43;;;;;;;3.67;2.83;;;18.80;99.90;;;;;;5895146;24;20382;-84
2021/08/06 03:53:47;;;;;;;4.60;2.90;;;19.00;99.90;;;;;;5892661;24;20466;-87
2021/08/06 04:00:11;;;;;;;3.00;2.77;;;19.00;99.90;;;;;;5912451;24;20478;-84
2021/08/06 04:03:51;;;;;;;;;;;;;;;;;;;;;
2021/08/06 04:07:06;;;;;;;3.73;3.10;;;19.10;99.90;;;;;;5823150;24;20408;-83
2021/08/06 04:14:29;;;;;;;4.73;3.37;;;19.00;99.90;;;;;;5864897;24;20447;-83
2021/08/06 04:24:52;;;;;;;3.43;2.40;;;18.90;99.90;;;;;;6133556;23;20887;-84
2021/08/06 04:35:36;;;;;;;3.47;3.17;;;18.70;99.90;;;;;;6132510;23;20435;-81
2021/08/06 04:50:20;;;;;;;;;;;;;;;;;;;;;
2021/08/06 04:57:21;;;;;;;8.30;4.13;;;18.50;99.90;;;;;;6002738;23;20529;-86
2021/08/06 05:00:41;;;;;;;4.77;3.67;;;18.60;99.90;;;;;;6081280;23;20488;-85
2021/08/06 05:11:22;;;;;;;3.00;2.80;;;18.50;99.90;;;;;;6126852;23;20410;-84
2021/08/06 05:18:39;;;;;;;3.80;3.20;;;18.60;99.90;;;;;;5905355;24;20471;-81
2021/08/06 05:21:34;;;;;;;3.23;2.90;;;18.50;99.90;;;;;;5848826;24;20515;-84
2021/08/06 05:25:02;;;;;;;3.57;3.27;;;18.60;99.90;;;;;;5804989;24;20401;-84
2021/08/06 05:28:11;;;;;;;3.20;2.90;;;18.60;99.90;;;;;;5827618;24;20435;-81
2021/08/06 05:32:07;;;;;;;5.03;2.80;;;18.60;99.90;;;;;;5920020;24;20456;-88
2021/08/06 05:34:51;;;;;;;;;;;;;;;;;;;;;
2021/08/06 05:37:58;;;;;;;4.40;3.40;;;18.70;99.90;;;;;;5908137;24;20465;-86
2021/08/06 05:41:34;;;;;;;3.33;2.60;;;18.60;99.90;;;;;;5941354;24;20485;-82
2021/08/06 05:48:03;;;;;;;2.83;2.60;;;18.60;99.90;;;;;;5993699;23;20768;-86
2021/08/06 05:50:51;;;;;;;3.50;3.13;;;18.50;99.90;;;;;;6042692;23;20527;-81
2021/08/06 05:58:03;;;;;;;2.90;2.70;;;18.50;99.90;;;;;;6158998;23;20418;-86
2021/08/06 06:05:18;;;;;;;3.33;2.90;;;18.50;99.90;;;;;;6065879;23;20404;-84
2021/08/06 06:08:39;;;;;;;3.33;2.63;;;18.50;99.90;;;;;;6078751;23;20750;-85
2021/08/06 06:12:24;;;;;;;3.63;2.70;;;18.60;99.90;;;;;;6083036;23;20431;-83
2021/08/06 06:15:12;;;;;;;4.03;3.67;;;18.70;99.90;;;;;;6079574;23;20466;-83
2021/08/06 06:17:48;;;;;;;3.63;3.33;;;18.70;99.90;;;;;;6081496;23;20408;-83
2021/08/06 06:37:28;;;;;;;;;;;;;;;;;;;;;
2021/08/06 06:40:29;;;;;;;;;;;;;;;;;;;;;
2021/08/06 06:44:08;;;;;;;3.03;2.83;;;18.90;99.90;;;;;;6153395;23;20417;-86
2021/08/06 06:51:17;;;;;;;2.90;2.67;;;18.90;99.90;;;;;;6003984;23;20643;-83
2021/08/06 06:53:46;;;;;;;6.27;2.90;;;18.90;99.90;;;;;;6077035;23;20560;-83
2021/08/06 06:57:00;;;;;;;;;;;;;;;;;;;;;
2021/08/06 07:00:26;;;;;;;4.47;2.40;;;19.10;99.90;;;;;;6068630;23;20486;-82
2021/08/06 07:07:51;;;;;;;;;;;;;;;;;;;;;
2021/08/06 07:20:20;;;;;;;2.37;2.03;;;19.60;99.90;;;;;;6095051;23;20394;-86
2021/08/06 07:28:02;;;;;;;3.23;2.03;;;19.70;99.90;;;;;;6021502;23;20526;-85
2021/08/06 07:35:44;;;;;;;1.77;1.40;;;20.30;99.90;;;;;;5909617;24;20416;-83
2021/08/06 07:39:05;;;;;;;1.67;1.33;;;20.30;99.90;;;;;;5948886;24;20432;-85
2021/08/06 07:42:05;;;;;;;1.57;1.23;;;20.20;99.90;;;;;;5942313;24;20463;-86
2021/08/06 07:44:57;;;;;;;2.40;1.30;;;20.80;99.90;;;;;;6021352;23;20415;-85
2021/08/06 07:48:08;;;;;;;;;;;;;;;;;;;;;
2021/08/06 07:51:13;;;;;;;1.70;1.60;;;21.00;99.90;;;;;;6030025;23;20387;-80
2021/08/06 07:57:57;;;;;;;1.00;0.90;;;22.30;99.90;;;;;;6046341;23;20414;-82
2021/08/06 08:01:27;;;;;;;1.33;0.97;;;23.60;99.90;;;;;;6048032;23;20570;-82
2021/08/06 08:07:46;;;;;;;1.30;1.20;;;22.30;99.90;;;;;;5950287;24;20409;-80
2021/08/06 08:11:30;;;;;;;1.30;1.10;;;21.80;99.90;;;;;;5876002;24;20444;-80
2021/08/06 08:14:23;;;;;;;1.23;1.10;;;21.50;99.90;;;;;;5912106;24;21087;-80
2021/08/06 08:33:15;;;;;;;3.40;0.90;;;21.00;99.90;;;;;;6134986;23;20483;-81
2021/08/06 08:36:24;;;;;;;1.20;1.10;;;20.70;99.90;;;;;;6118510;23;20410;-81
2021/08/06 08:47:38;;;;;;;;;;;;;;;;;;;;;
2021/08/06 08:50:50;;;;;;;1.50;1.40;;;20.70;99.90;;;;;;6084634;23;20954;-82
2021/08/06 08:54:05;;;;;;;2.27;1.60;;;20.60;99.90;;;;;;6110163;23;20771;-82
2021/08/06 08:57:09;;;;;;;3.50;1.80;;;20.20;99.90;;;;;;6098542;23;20411;-83
2021/08/06 09:00:14;;;;;;;1.90;1.70;;;19.90;99.90;;;;;;6091418;23;20517;-82
2021/08/06 09:02:42;;;;;;;3.50;2.30;;;19.70;99.90;;;;;;6105073;23;20415;-88
2021/08/06 09:05:17;;;;;;;3.20;1.70;;;19.70;99.90;;;;;;6132750;23;20407;-85
2021/08/06 09:08:17;;;;;;;2.63;2.07;;;19.80;99.90;;;;;;6093672;23;20400;-85
2021/08/06 09:10:59;;;;;;;2.17;1.97;;;20.00;99.90;;;;;;6106561;23;20428;-83
2021/08/06 09:13:36;;;;;;;1.93;1.70;;;20.00;99.90;;;;;;6133106;23;20494;-84
2021/08/06 09:16:29;;;;;;;2.93;2.10;;;19.90;99.90;;;;;;6106891;23;20411;-83
2021/08/06 09:18:56;;;;;;;1.70;1.50;;;19.80;99.90;;;;;;6105210;23;20412;-84
2021/08/06 09:22:24;;;;;;;;;;;;;;;;;;;;;
2021/08/06 09:25:14;;;;;;;2.50;1.43;;;19.70;99.90;;;;;;6059997;23;20428;-84
2021/08/06 09:28:04;;;;;;;2.27;2.07;;;19.60;99.90;;;;;;6132886;23;20428;-83
2021/08/06 09:31:13;;;;;;;1.83;1.30;;;19.60;99.90;;;;;;6106982;23;20435;-86
2021/08/06 09:33:43;;;;;;;2.57;1.20;;;20.10;99.90;;;;;;6133203;23;20560;-82
2021/08/06 09:36:40;;;;;;;2.37;1.37;;;22.30;99.90;;;;;;6110790;23;20388;-84
2021/08/06 09:39:18;;;;;;;1.40;1.10;;;22.70;99.90;;;;;;6132011;23;20439;-84
2021/08/06 09:42:23;;;;;;;2.83;1.80;;;22.80;99.60;;;;;;6111713;23;20440;-85
2021/08/06 09:45:14;;;;;;;2.20;1.00;;;23.80;97.70;;;;;;6091695;23;20403;-83
2021/08/06 09:47:54;;;;;;;1.90;1.57;;;24.30;96.30;;;;;;6107638;23;20389;-85
2021/08/06 09:50:43;;;;;;;2.97;1.50;;;24.00;96.40;;;;;;6108426;23;20447;-84
2021/08/06 09:53:30;;;;;;;2.03;1.40;;;24.20;96.50;;;;;;6110722;23;20440;-83
2021/08/06 09:56:02;;;;;;;1.50;1.40;;;24.60;96.20;;;;;;6135560;23;20391;-83
2021/08/06 09:58:58;;;;;;;5.23;1.70;;;26.00;94.40;;;;;;6110357;23;20400;-85
2021/08/06 10:02:14;;;;;;;1.50;1.40;;;27.60;87.30;;;;;;6109611;23;20428;-84
2021/08/06 10:05:15;;;;;;;2.40;1.90;;;27.90;84.20;;;;;;6120001;23;20459;-82
2021/08/06 10:07:58;;;;;;;1.87;1.30;;;28.60;78.90;;;;;;6132643;23;20625;-83
2021/08/06 10:10:38;;;;;;;2.10;1.27;;;29.00;78.10;;;;;;6133458;23;20435;-84
2021/08/06 10:13:53;;;;;;;2.47;1.10;;;29.40;71.90;;;;;;6133412;23;20475;-85
2021/08/06 10:16:20;;;;;;;1.63;1.20;;;28.30;74.60;;;;;;6106159;23;20401;-85
2021/08/06 10:18:53;;;;;;;1.13;1.03;;;29.10;72.70;;;;;;6136442;23;20750;-84
2021/08/06 10:21:22;;;;;;;1.50;1.40;;;29.80;71.00;;;;;;6108626;23;20432;-85
2021/08/06 10:23:52;;;;;;;1.63;1.30;;;30.40;67.40;;;;;;6111131;23;20435;-84
2021/08/06 10:26:34;;;;;;;1.50;1.40;;;28.80;71.60;;;;;;6108816;23;20478;-83
2021/08/06 10:29:07;;;;;;;1.90;1.40;;;27.50;76.70;;;;;;6102558;23;20459;-81
2021/08/06 10:31:47;;;;;;;2.10;1.93;;;27.40;80.00;;;;;;6103551;23;20435;-84
2021/08/06 10:34:30;;;;;;;2.70;1.50;;;26.90;82.00;;;;;;6100121;23;20458;-82
2021/08/06 10:37:41;;;;;;;2.20;1.60;;;26.20;83.70;;;;;;6099341;23;20419;-81
2021/08/06 10:40:47;;;;;;;3.10;2.17;;;25.50;86.50;;;;;;6123693;23;20451;-81
2021/08/06 10:43:15;;;;;;;2.50;2.30;;;24.20;92.30;;;;;;6101556;23;20407;-83
2021/08/06 10:45:52;;;;;;;1.63;1.53;;;23.70;94.00;;;;;;6103260;23;20444;-82
2021/08/06 10:49:22;;;;;;;2.27;1.93;;;23.40;94.50;;;;;;6104828;23;20408;-83
2021/08/06 10:53:17;;;;;;;;;;;;;;;;;;;;;
2021/08/06 11:42:41;;;;;;;2.80;1.33;;;25.40;86.10;;;;;;6140893;23;21048;-80
2021/08/06 11:45:23;;;;;;;1.90;1.10;;;24.90;86.30;;;;;;6135383;23;20449;-83
2021/08/06 11:51:58;;;;;;;1.40;1.20;;;24.00;90.50;;;;;;6065708;23;20415;-84
2021/08/06 11:56:01;;;;;;;1.47;1.10;;;23.10;93.60;;;;;;6128205;23;20455;-83
2021/08/06 11:58:43;;;;;;;4.63;1.30;;;22.60;95.40;;;;;;6074222;23;20468;-81
2021/08/06 12:02:01;;;;;;;0.80;0.80;;;22.30;96.70;;;;;;6107279;23;20431;-83
2021/08/06 12:14:50;;;;;;;2.47;1.50;;;22.00;96.70;;;;;;6130818;23;20470;-83
2021/08/06 12:17:43;;;;;;;2.23;1.60;;;22.10;97.00;;;;;;6131756;23;20436;-83
2021/08/06 12:24:43;;;;;;;1.73;1.10;;;22.40;95.80;;;;;;5881635;24;20518;-83
2021/08/06 12:27:30;;;;;;;3.33;1.30;;;22.40;95.20;;;;;;6006087;23;20417;-82
2021/08/06 12:29:57;;;;;;;1.97;1.03;;;22.50;95.60;;;;;;6040482;23;20417;-84
2021/08/06 12:48:36;;;;;;;1.40;1.30;;;23.50;93.30;;;;;;6164199;23;20550;-85
2021/08/06 12:52:14;;;;;;;1.40;1.07;;;23.60;92.70;;;;;;6155119;23;20438;-82
2021/08/06 12:59:23;;;;;;;3.20;1.20;;;23.90;91.50;;;;;;6157261;23;20482;-84
2021/08/06 13:02:22;;;;;;;3.10;1.10;;;23.80;91.70;;;;;;6108328;23;20487;-83
2021/08/06 13:04:50;;;;;;;1.50;1.40;;;24.10;90.80;;;;;;6159450;23;20415;-82
2021/08/06 13:07:31;;;;;;;1.33;1.17;;;24.30;90.70;;;;;;6133219;23;20446;-83
2021/08/06 13:10:03;;;;;;;1.37;1.13;;;24.60;90.20;;;;;;6134554;23;20407;-83
2021/08/06 13:12:47;;;;;;;1.80;1.30;;;25.60;87.20;;;;;;6159286;23;20415;-83
2021/08/06 13:15:23;;;;;;;1.70;1.23;;;26.60;82.60;;;;;;6133194;23;20407;-83
2021/08/06 13:18:11;;;;;;;;;;;;;;;;;;;;;
2021/08/06 13:20:51;;;;;;;2.50;1.60;;;26.40;79.30;;;;;;6158983;23;20434;-81
2021/08/06 13:23:38;;;;;;;1.37;1.27;;;26.00;81.10;;;;;;6133867;23;20403;-83
2021/08/06 13:26:09;;;;;;;2.37;1.40;;;25.70;82.70;;;;;;6157635;23;20426;-81
2021/08/06 13:28:42;;;;;;;1.63;1.37;;;25.40;84.00;;;;;;6137481;23;20402;-81
2021/08/06 13:31:15;;;;;;;2.13;1.57;;;25.00;86.00;;;;;;6151149;23;20486;-84
2021/08/06 13:33:42;;;;;;;3.23;1.40;;;24.80;86.50;;;;;;6175814;23;20435;-83
2021/08/06 13:36:12;;;;;;;3.20;1.93;;;24.60;87.60;;;;;;6175104;23;20466;-84
2021/08/06 13:38:38;;;;;;;3.73;2.17;;;24.40;88.00;;;;;;6174000;23;20509;-84
2021/08/06 13:41:05;;;;;;;1.67;1.53;;;24.50;86.40;;;;;;6173262;23;21013;-81
2021/08/06 13:43:32;;;;;;;2.80;1.70;;;24.50;84.50;;;;;;6153318;23;20406;-85
2021/08/06 13:46:00;;;;;;;1.93;1.53;;;24.50;83.90;;;;;;6151331;23;20473;-82
2021/08/06 13:48:27;;;;;;;2.13;1.70;;;24.90;82.40;;;;;;6168174;23;20800;-81
2021/08/06 13:50:54;;;;;;;1.50;1.40;;;24.90;81.30;;;;;;6137722;23;20431;-82
2021/08/06 13:53:30;;;;;;;3.10;2.30;;;24.60;82.40;;;;;;6162292;23;20449;-80
2021/08/06 13:55:57;;;;;;;2.10;1.83;;;24.30;83.70;;;;;;6162076;23;20914;-84
2021/08/06 13:58:24;;;;;;;2.70;1.60;;;24.20;83.80;;;;;;6162141;23;20407;-80
2021/08/06 14:00:52;;;;;;;1.70;1.60;;;23.90;85.20;;;;;;6136785;23;20461;-84
2021/08/06 14:03:18;;;;;;;2.10;1.90;;;24.00;85.20;;;;;;6162418;23;20425;-85
2021/08/06 14:05:45;;;;;;;2.90;1.90;;;24.10;85.90;;;;;;6149460;23;20414;-85
2021/08/06 14:08:12;;;;;;;1.77;1.67;;;24.20;85.60;;;;;;6176136;23;20417;-85
2021/08/06 14:10:39;;;;;;;1.67;1.57;;;24.90;83.60;;;;;;6163677;23;20441;-84
2021/08/06 14:13:07;;;;;;;1.97;1.50;;;24.80;82.60;;;;;;6160425;23;20423;-83
2021/08/06 14:15:34;;;;;;;1.80;1.70;;;24.50;82.70;;;;;;6135901;23;20902;-83
2021/08/06 14:18:04;;;;;;;1.97;1.70;;;24.40;82.80;;;;;;6135622;23;20473;-83
2021/08/06 14:20:32;;;;;;;3.07;1.60;;;24.40;83.60;;;;;;6172635;23;20423;-85
2021/08/06 14:23:00;;;;;;;1.80;1.40;;;24.70;81.50;;;;;;6163744;23;20414;-82
2021/08/06 14:25:26;;;;;;;1.80;1.70;;;24.90;80.30;;;;;;6137423;23;20411;-84
2021/08/06 14:27:53;;;;;;;1.30;1.20;;;24.70;80.50;;;;;;6139523;23;20417;-80
2021/08/06 14:30:21;;;;;;;1.47;1.27;;;24.70;80.00;;;;;;6165039;23;20486;-83
2021/08/06 14:32:48;;;;;;;2.70;1.20;;;24.70;80.10;;;;;;6162841;23;20400;-83
2021/08/06 14:35:15;;;;;;;1.83;1.37;;;24.60;80.50;;;;;;6165828;23;20503;-83
2021/08/06 14:37:42;;;;;;;3.20;1.20;;;24.60;80.60;;;;;;6165839;23;20421;-83
2021/08/06 14:40:09;;;;;;;1.30;1.20;;;24.80;80.40;;;;;;6166097;23;20502;-84
2021/08/06 14:42:36;;;;;;;2.97;1.40;;;24.90;80.00;;;;;;6147574;23;20429;-80
2021/08/06 14:45:03;;;;;;;1.37;1.10;;;25.00;79.60;;;;;;6142243;23;20410;-83
2021/08/06 14:47:33;;;;;;;1.13;1.00;;;25.10;78.30;;;;;;6164970;23;20418;-80
2021/08/06 14:50:04;;;;;;;2.30;0.97;;;25.10;78.50;;;;;;6140366;23;20431;-81
2021/08/06 14:52:34;;;;;;;1.23;1.13;;;24.90;78.80;;;;;;6141456;23;20437;-82
2021/08/06 14:55:01;;;;;;;1.27;1.17;;;24.90;79.50;;;;;;6141740;23;20445;-83
2021/08/06 14:57:30;;;;;;;1.63;1.53;;;25.00;79.30;;;;;;6142308;23;20414;-84
2021/08/06 15:00:09;;;;;;;1.60;1.50;;;24.80;80.40;;;;;;6144018;23;20411;-82
2021/08/06 15:02:36;;;;;;;2.03;1.67;;;24.80;80.40;;;;;;6145359;23;20406;-83
2021/08/06 15:05:04;;;;;;;1.37;1.00;;;24.50;81.10;;;;;;6144085;23;20889;-82
2021/08/06 15:07:34;;;;;;;1.10;1.00;;;24.50;81.10;;;;;;6172681;23;20417;-85
2021/08/06 15:10:02;;;;;;;1.30;1.20;;;24.90;80.30;;;;;;6150832;23;20839;-84
2021/08/06 15:12:49;;;;;;;1.27;1.00;;;24.70;80.30;;;;;;6157503;23;20395;-80
2021/08/06 15:15:24;;;;;;;1.60;1.03;;;24.90;79.00;;;;;;6171930;23;20746;-82
2021/08/06 15:17:51;;;;;;;0.90;0.80;;;24.80;79.30;;;;;;6147492;23;20441;-80
2021/08/06 15:20:18;;;;;;;1.57;0.90;;;24.90;79.30;;;;;;6177638;23;20462;-84
2021/08/06 15:22:45;;;;;;;1.43;1.20;;;24.90;78.90;;;;;;6173654;23;20406;-82
2021/08/06 15:25:12;;;;;;;3.33;1.30;;;24.80;78.80;;;;;;6147706;23;20810;-82
2021/08/06 15:27:39;;;;;;;1.30;1.07;;;24.30;79.60;;;;;;6144152;23;20426;-81
2021/08/06 15:30:06;;;;;;;1.10;1.00;;;24.00;80.90;;;;;;6164480;23;20990;-84
2021/08/06 15:32:33;;;;;;;2.77;2.30;;;24.10;80.60;;;;;;6166257;23;20399;-83
2021/08/06 15:35:00;;;;;;;1.93;1.37;;;23.90;81.20;;;;;;6141131;23;20693;-83
2021/08/06 15:37:27;;;;;;;1.30;1.20;;;24.20;81.30;;;;;;6163805;23;20433;-82
2021/08/06 15:39:54;;;;;;;2.40;1.20;;;24.20;81.30;;;;;;6164751;23;20418;-84
2021/08/06 15:42:21;;;;;;;1.40;1.20;;;24.10;81.80;;;;;;6165946;23;20422;-80
2021/08/06 15:44:49;;;;;;;1.33;1.10;;;24.00;81.90;;;;;;6139608;23;20426;-83
2021/08/06 15:47:18;;;;;;;1.50;1.40;;;24.00;82.30;;;;;;6140425;23;20455;-84
2021/08/06 15:49:45;;;;;;;1.53;1.30;;;24.00;83.00;;;;;;6166949;23;20549;-82
2021/08/06 15:52:12;;;;;;;1.20;1.10;;;24.00;83.20;;;;;;6168862;23;20441;-80
2021/08/06 15:54:41;;;;;;;2.20;0.90;;;24.00;83.60;;;;;;6169842;23;20435;-83
2021/08/06 15:57:08;;;;;;;1.40;1.13;;;24.30;83.40;;;;;;6122586;23;20417;-84
2021/08/06 15:59:34;;;;;;;1.40;1.00;;;24.20;82.60;;;;;;6176364;23;20414;-86
2021/08/06 16:02:04;;;;;;;1.43;1.00;;;24.10;82.40;;;;;;6142510;23;20437;-83
2021/08/06 16:04:31;;;;;;;1.10;0.90;;;24.00;82.90;;;;;;6141721;23;20429;-83
2021/08/06 16:06:57;;;;;;;0.80;0.80;;;24.40;81.80;;;;;;6171243;23;20420;-85
2021/08/06 16:09:24;;;;;;;1.40;1.30;;;24.20;80.90;;;;;;6176989;23;20449;-83
2021/08/06 16:11:51;;;;;;;1.27;0.77;;;24.30;81.20;;;;;;6152932;23;20407;-82
2021/08/06 16:14:18;;;;;;;1.27;0.90;;;24.30;81.60;;;;;;6147912;23;20569;-80
2021/08/06 16:16:45;;;;;;;1.20;1.10;;;24.50;80.60;;;;;;6141723;23;20403;-82
2021/08/06 16:19:12;;;;;;;2.83;1.80;;;24.40;81.50;;;;;;6147586;23;20934;-83
2021/08/06 16:21:42;;;;;;;1.30;1.20;;;24.20;82.50;;;;;;6140078;23;20441;-85
2021/08/06 16:24:09;;;;;;;3.37;1.60;;;24.00;83.80;;;;;;6163715;23;20416;-83
2021/08/06 16:26:36;;;;;;;1.30;1.20;;;24.00;84.40;;;;;;6136756;23;20407;-82
2021/08/06 16:29:05;;;;;;;1.60;1.50;;;23.90;84.40;;;;;;6136643;23;20947;-84
2021/08/06 16:31:34;;;;;;;1.93;1.20;;;24.40;83.80;;;;;;6163366;23;20458;-81
2021/08/06 16:34:01;;;;;;;4.37;1.37;;;24.40;82.80;;;;;;6138050;23;20824;-81
2021/08/06 16:36:28;;;;;;;2.20;1.30;;;24.40;82.80;;;;;;6163457;23;20413;-80
2021/08/06 16:38:55;;;;;;;2.20;1.17;;;24.30;84.10;;;;;;6139012;23;20417;-81
2021/08/06 16:41:21;;;;;;;3.70;3.43;;;24.30;83.80;;;;;;6138843;23;20423;-81
2021/08/06 16:43:48;;;;;;;1.50;1.40;;;24.10;84.00;;;;;;6140939;23;20411;-82
2021/08/06 16:46:15;;;;;;;1.40;1.30;;;23.80;84.80;;;;;;6167504;23;20804;-82
2021/08/06 16:48:42;;;;;;;1.30;1.20;;;23.70;84.80;;;;;;6153764;23;20419;-81
2021/08/06 16:51:09;;;;;;;1.27;1.13;;;23.80;84.40;;;;;;6182712;23;20422;-82
2021/08/06 16:53:38;;;;;;;1.27;0.97;;;23.50;84.10;;;;;;6183181;23;20387;-84
2021/08/06 16:56:05;;;;;;;1.60;1.20;;;23.60;83.90;;;;;;6182549;23;20497;-86
2021/08/06 16:58:32;;;;;;;1.90;1.80;;;23.40;84.40;;;;;;6182400;23;20413;-82
2021/08/06 17:00:59;;;;;;;4.60;1.20;;;23.30;85.40;;;;;;6181993;23;20430;-85
2021/08/06 17:03:26;;;;;;;0.90;0.90;;;23.50;85.70;;;;;;6155338;23;20422;-85
2021/08/06 17:05:53;;;;;;;1.00;0.90;;;23.60;85.00;;;;;;6180234;23;20410;-85
2021/08/06 17:08:19;;;;;;;0.83;0.83;;;23.70;85.30;;;;;;6177188;23;20423;-83
2021/08/06 17:10:46;;;;;;;0.90;0.90;;;23.80;84.80;;;;;;6161199;23;20498;-83
2021/08/06 17:13:13;;;;;;;1.47;1.30;;;23.60;85.80;;;;;;6132970;23;20418;-81
2021/08/06 17:15:40;;;;;;;1.17;1.07;;;23.30;86.90;;;;;;6133713;23;20446;-83
2021/08/06 17:18:08;;;;;;;1.37;1.13;;;23.20;87.60;;;;;;6157998;23;20439;-81
2021/08/06 17:20:35;;;;;;;1.07;0.97;;;23.20;88.00;;;;;;6134617;23;20438;-82
2021/08/06 17:23:03;;;;;;;1.20;1.10;;;23.30;87.80;;;;;;6134539;23;20432;-82
2021/08/06 17:25:30;;;;;;;1.10;1.00;;;23.20;88.50;;;;;;6131773;23;20395;-81
2021/08/06 17:27:57;;;;;;;3.17;1.23;;;23.10;88.70;;;;;;6132220;23;20410;-83
2021/08/06 17:30:23;;;;;;;1.00;1.00;;;23.30;88.70;;;;;;6132896;23;20426;-83
2021/08/06 17:32:50;;;;;;;1.33;1.00;;;23.30;87.90;;;;;;6159771;23;20470;-82
2021/08/06 17:35:18;;;;;;;1.23;1.00;;;23.10;88.80;;;;;;6132363;23;20442;-80
2021/08/06 17:37:45;;;;;;;1.87;1.10;;;23.20;89.80;;;;;;6159261;23;20781;-84
2021/08/06 17:40:13;;;;;;;1.53;1.03;;;23.10;88.90;;;;;;6159080;23;20779;-81
2021/08/06 17:42:40;;;;;;;1.43;0.80;;;23.00;89.00;;;;;;6158091;23;20603;-82
2021/08/06 17:45:08;;;;;;;2.10;1.20;;;22.90;89.30;;;;;;6160417;23;20485;-82
2021/08/06 17:47:35;;;;;;;2.20;1.20;;;22.70;90.20;;;;;;6130541;23;20418;-82
2021/08/06 17:50:03;;;;;;;1.20;1.10;;;22.80;90.40;;;;;;6133679;23;20470;-82
2021/08/06 17:52:29;;;;;;;1.27;1.17;;;23.10;90.20;;;;;;6131902;23;20445;-79
2021/08/06 17:54:56;;;;;;;1.30;1.00;;;22.90;90.20;;;;;;6159159;23;20442;-82
2021/08/06 17:57:23;;;;;;;1.30;1.20;;;23.00;90.40;;;;;;6131900;23;20407;-82
2021/08/06 17:59:50;;;;;;;1.20;1.10;;;22.90;90.40;;;;;;6134077;23;20418;-81
2021/08/06 18:02:17;;;;;;;1.90;1.30;;;22.70;90.70;;;;;;6133906;23;20422;-83
2021/08/06 18:04:44;;;;;;;2.30;1.20;;;22.50;91.10;;;;;;6160542;23;20419;-83
2021/08/06 18:07:10;;;;;;;1.30;1.07;;;22.50;91.10;;;;;;6159388;23;20399;-82
2021/08/06 18:09:37;;;;;;;1.63;1.10;;;22.40;91.60;;;;;;6132922;23;20498;-83
2021/08/06 18:12:04;;;;;;;1.47;1.33;;;22.60;91.40;;;;;;6160192;23;20761;-82
2021/08/06 18:14:31;;;;;;;1.30;1.20;;;22.50;91.30;;;;;;6161786;23;20446;-81
2021/08/06 18:16:58;;;;;;;1.80;1.40;;;22.30;91.50;;;;;;6135683;23;20447;-82
2021/08/06 18:19:25;;;;;;;1.37;1.13;;;22.20;91.80;;;;;;6162146;23;20410;-82
2021/08/06 18:21:53;;;;;;;1.70;1.50;;;22.20;91.70;;;;;;6162998;23;20427;-83
2021/08/06 18:24:19;;;;;;;1.70;1.60;;;22.50;91.50;;;;;;6173982;23;20471;-81
2021/08/06 18:26:46;;;;;;;1.83;1.67;;;22.30;93.30;;;;;;6149305;23;20411;-81
2021/08/06 18:29:18;;;;;;;1.00;1.00;;;22.10;94.70;;;;;;6178387;23;20798;-81
2021/08/06 18:31:49;;;;;;;1.40;1.10;;;22.10;95.10;;;;;;6174876;23;20435;-83
2021/08/06 18:34:17;;;;;;;1.33;1.20;;;22.10;95.90;;;;;;6178546;23;20403;-84
2021/08/06 18:36:45;;;;;;;1.50;1.40;;;22.30;95.10;;;;;;6152882;23;20399;-84
2021/08/06 18:39:12;;;;;;;3.90;1.80;;;22.30;95.60;;;;;;6155374;23;20409;-86
2021/08/06 18:41:40;;;;;;;2.67;1.30;;;22.30;95.40;;;;;;6177790;23;20442;-86
2021/08/06 18:44:07;;;;;;;2.03;1.50;;;22.40;95.10;;;;;;6181721;23;20458;-86
2021/08/06 18:46:34;;;;;;;1.50;1.40;;;22.30;95.10;;;;;;6150690;23;20485;-81
2021/08/06 18:49:03;;;;;;;2.13;1.40;;;22.30;95.30;;;;;;6141393;23;20419;-84